createdAt,value
2019-05-16T00:02:45.581Z,9.40
2019-05-16T00:06:09.001Z,9.30
2019-05-16T00:09:32.315Z,9.20
2019-05-16T00:12:55.672Z,9.20
2019-05-16T00:16:19.619Z,9.10
2019-05-16T00:19:42.762Z,9.10
2019-05-16T00:23:07.918Z,9.00
2019-05-16T00:26:31.025Z,8.90
2019-05-16T00:29:54.363Z,8.80
2019-05-16T00:33:18.359Z,8.80
2019-05-16T00:36:41.855Z,8.80
2019-05-16T00:40:05.532Z,8.80
2019-05-16T00:43:29.258Z,8.80
2019-05-16T00:46:52.541Z,8.80
2019-05-16T00:50:18.277Z,8.70
2019-05-16T00:53:41.820Z,8.70
2019-05-16T00:57:08.328Z,8.70
2019-05-16T01:00:49.786Z,8.80
2019-05-16T01:04:13.770Z,8.80
2019-05-16T01:07:39.159Z,8.90
2019-05-16T01:11:02.093Z,8.90
2019-05-16T01:14:25.798Z,8.90
2019-05-16T01:17:48.938Z,8.90
2019-05-16T01:21:12.527Z,8.90
2019-05-16T01:24:35.667Z,8.90
2019-05-16T01:27:58.940Z,8.80
2019-05-16T01:31:22.204Z,8.80
2019-05-16T01:34:45.508Z,8.80
2019-05-16T01:38:08.800Z,8.70
2019-05-16T01:41:31.948Z,8.70
2019-05-16T01:44:55.089Z,8.70
2019-05-16T01:48:19.203Z,8.70
2019-05-16T01:51:42.918Z,8.70
2019-05-16T01:55:08.324Z,8.70
2019-05-16T01:58:32.698Z,8.70
2019-05-16T02:02:00.616Z,8.70
2019-05-16T02:05:21.358Z,8.60
2019-05-16T02:08:44.806Z,8.60
2019-05-16T02:12:10.678Z,8.50
2019-05-16T02:15:33.141Z,8.60
2019-05-16T02:18:56.323Z,8.50
2019-05-16T02:22:20.281Z,8.60
2019-05-16T02:25:43.445Z,8.70
2019-05-16T02:29:06.891Z,8.70
2019-05-16T02:32:31.284Z,8.70
2019-05-16T02:35:55.749Z,8.70
2019-05-16T02:39:21.224Z,8.70
2019-05-16T02:42:44.442Z,8.80
2019-05-16T02:46:07.732Z,8.90
2019-05-16T02:49:34.092Z,9.00
2019-05-16T02:52:56.803Z,9.10
2019-05-16T02:56:21.153Z,9.20
2019-05-16T02:59:44.931Z,9.30
2019-05-16T03:03:11.658Z,9.40
2019-05-16T03:06:34.598Z,9.40
2019-05-16T03:10:01.530Z,9.40
2019-05-16T03:13:23.578Z,9.50
2019-05-16T03:16:50.586Z,9.50
2019-05-16T03:20:13.977Z,9.60
2019-05-16T03:23:37.385Z,9.70
2019-05-16T03:27:01.571Z,9.80
2019-05-16T03:30:25.181Z,9.90
2019-05-16T03:33:51.992Z,9.90
2019-05-16T03:37:14.584Z,9.90
2019-05-16T03:40:41.026Z,10.00
2019-05-16T03:44:03.212Z,9.90
2019-05-16T03:47:26.381Z,9.90
2019-05-16T03:50:50.806Z,9.90
2019-05-16T03:54:14.392Z,9.90
2019-05-16T03:57:37.591Z,9.90
2019-05-16T04:01:02.358Z,9.80
2019-05-16T04:04:25.965Z,9.80
2019-05-16T04:07:51.594Z,9.80
2019-05-16T04:11:18.236Z,9.90
2019-05-16T04:14:40.931Z,10.00
2019-05-16T04:18:04.682Z,10.00
2019-05-16T04:21:31.901Z,10.00
2019-05-16T04:24:53.031Z,10.00
2019-05-16T04:28:16.167Z,10.00
2019-05-16T04:31:41.314Z,10.00
2019-05-16T04:35:06.110Z,10.00
2019-05-16T04:38:39.638Z,10.10
2019-05-16T04:41:54.475Z,10.10
2019-05-16T04:45:20.920Z,10.20
2019-05-16T04:48:43.004Z,10.30
2019-05-16T04:52:06.330Z,10.40
2019-05-16T04:55:31.679Z,10.50
2019-05-16T04:58:54.963Z,10.60
2019-05-16T05:02:21.053Z,10.60
2019-05-16T05:05:43.398Z,10.70
2019-05-16T05:09:07.422Z,10.70
2019-05-16T05:12:31.746Z,10.60
2019-05-16T05:15:55.366Z,10.60
2019-05-16T05:19:20.232Z,10.60
2019-05-16T05:22:43.765Z,10.70
2019-05-16T05:26:07.266Z,10.80
2019-05-16T05:29:30.803Z,11.00
2019-05-16T05:38:31.644Z,10.90
2019-05-16T05:42:33.290Z,10.60
2019-05-16T05:46:01.386Z,10.50
2019-05-16T05:49:24.548Z,10.30
2019-05-16T05:52:50.525Z,10.30
2019-05-16T05:56:13.455Z,10.30
2019-05-16T05:59:36.891Z,10.40
2019-05-16T06:17:24.731Z,11.60
2019-05-16T06:20:47.982Z,11.70
2019-05-16T06:24:11.325Z,11.90
2019-05-16T06:27:34.929Z,12.20
2019-05-16T06:31:01.399Z,12.60
2019-05-16T06:34:23.417Z,12.90
2019-05-16T06:37:46.714Z,13.30
2019-05-16T06:41:10.682Z,13.50
2019-05-16T06:44:35.231Z,13.80
2019-05-16T06:48:00.637Z,14.00
2019-05-16T06:51:24.017Z,14.20
2019-05-16T06:54:49.943Z,14.20
2019-05-16T06:58:12.539Z,14.00
2019-05-16T07:01:35.786Z,14.00
2019-05-16T07:05:01.117Z,14.00
2019-05-16T07:08:24.586Z,14.00
2019-05-16T07:11:50.308Z,13.90
2019-05-16T07:15:15.531Z,13.80
2019-05-16T07:18:40.117Z,13.70
2019-05-16T07:22:03.696Z,13.60
2019-05-16T07:25:27.058Z,13.70
2019-05-16T07:28:51.587Z,13.50
2019-05-16T07:32:15.091Z,13.50
2019-05-16T07:35:40.144Z,13.60
2019-05-16T07:39:05.081Z,13.70
2019-05-16T07:42:30.796Z,13.70
2019-05-16T07:45:54.342Z,13.80
2019-05-16T07:49:19.652Z,13.80
2019-05-16T07:52:42.690Z,13.90
2019-05-16T07:56:05.821Z,13.90
2019-05-16T07:59:30.063Z,13.80
2019-05-16T08:02:53.436Z,13.80
2019-05-16T08:06:16.709Z,13.80
2019-05-16T08:09:40.374Z,13.80
2019-05-16T08:13:03.774Z,13.60
2019-05-16T08:16:27.114Z,13.40
2019-05-16T08:19:50.940Z,13.40
2019-05-16T08:23:14.326Z,13.20
2019-05-16T08:30:04.001Z,13.10
2019-05-16T08:33:27.323Z,13.00
2019-05-16T08:40:16.086Z,12.80
2019-05-16T08:43:41.441Z,12.70
2019-05-16T08:47:05.859Z,12.70
2019-05-16T08:50:11.102Z,13.10
2019-05-16T08:50:34.744Z,12.80
2019-05-16T08:53:54.948Z,13.00
2019-05-16T08:57:27.551Z,13.20
2019-05-16T09:00:43.830Z,13.10
2019-05-16T09:04:07.107Z,13.00
2019-05-16T09:07:31.865Z,12.90
2019-05-16T09:10:11.000Z,12.90
2019-05-16T09:11:02.086Z,12.90
2019-05-16T09:14:21.385Z,13.00
2019-05-16T09:17:47.260Z,13.20
2019-05-16T09:21:09.791Z,13.40
2019-05-16T09:24:33.097Z,13.60
2019-05-16T09:27:57.009Z,13.80
2019-05-16T09:31:20.691Z,14.00
2019-05-16T09:34:44.002Z,14.30
2019-05-16T09:38:07.323Z,14.70
2019-05-16T09:41:46.378Z,15.10
2019-05-16T09:44:57.731Z,15.60
2019-05-16T09:48:20.973Z,16.10
2019-05-16T09:51:46.515Z,16.40
2019-05-16T09:55:09.916Z,16.80
2019-05-16T09:58:33.331Z,17.20
2019-05-16T10:01:57.267Z,17.70
2019-05-16T10:05:21.428Z,18.10
2019-05-16T10:08:46.433Z,18.60
2019-05-16T10:12:15.218Z,19.10
2019-05-16T10:15:37.621Z,19.30
2019-05-16T10:19:00.522Z,19.50
2019-05-16T10:22:24.177Z,19.70
2019-05-16T10:25:48.208Z,20.00
2019-05-16T10:29:11.670Z,20.20
2019-05-16T10:32:36.501Z,20.10
2019-05-16T10:36:00.499Z,20.00
2019-05-16T10:39:23.771Z,20.40
2019-05-16T10:42:47.244Z,20.70
2019-05-16T10:46:11.155Z,21.20
2019-05-16T10:49:38.796Z,21.50
2019-05-16T10:53:22.604Z,21.30
2019-05-16T10:56:25.239Z,21.50
2019-05-16T11:00:05.414Z,22.10
2019-05-16T11:03:13.859Z,24.10
2019-05-16T11:06:37.367Z,27.10
2019-05-16T11:10:03.521Z,28.90
2019-05-16T11:13:27.998Z,29.40
2019-05-16T11:16:52.163Z,30.00
2019-05-16T11:20:20.343Z,29.90
2019-05-16T11:23:43.708Z,29.70
2019-05-16T11:27:07.490Z,29.30
2019-05-16T11:30:31.071Z,27.70
2019-05-16T11:33:57.308Z,26.40
2019-05-16T11:37:19.597Z,25.40
2019-05-16T11:40:42.892Z,25.00
2019-05-16T11:44:06.764Z,24.70
2019-05-16T11:47:30.185Z,24.50
2019-05-16T11:50:53.390Z,25.00
2019-05-16T11:54:16.918Z,25.60
2019-05-16T11:57:40.398Z,27.20
2019-05-16T12:01:04.073Z,29.30
2019-05-16T12:04:30.626Z,28.90
2019-05-16T12:07:56.978Z,27.70
2019-05-16T12:11:18.936Z,26.70
2019-05-16T12:14:42.391Z,25.00
2019-05-16T12:18:08.614Z,24.50
2019-05-16T12:21:32.042Z,23.90
2019-05-16T12:24:57.407Z,24.00
2019-05-16T12:28:20.734Z,23.90
2019-05-16T12:31:55.323Z,23.90
2019-05-16T12:35:10.136Z,23.70
2019-05-16T12:38:33.395Z,24.00
2019-05-16T12:41:59.413Z,24.40
2019-05-16T12:45:21.743Z,24.60
2019-05-16T12:48:47.240Z,24.90
2019-05-16T12:52:10.178Z,24.80
2019-05-16T12:55:33.514Z,27.50
2019-05-16T12:58:57.433Z,28.60
2019-05-16T13:02:21.884Z,28.30
2019-05-16T13:05:47.557Z,29.20
2019-05-16T13:09:10.273Z,30.40
2019-05-16T13:12:33.651Z,30.40
2019-05-16T13:15:57.961Z,29.20
2019-05-16T13:19:21.263Z,27.60
2019-05-16T13:22:47.144Z,26.80
2019-05-16T13:26:09.607Z,26.10
2019-05-16T13:29:32.957Z,25.60
2019-05-16T13:32:56.589Z,25.80
2019-05-16T13:36:20.075Z,25.70
2019-05-16T13:39:43.668Z,25.00
2019-05-16T13:43:09.580Z,24.20
2019-05-16T13:46:31.963Z,23.20
2019-05-16T13:49:55.328Z,22.90
2019-05-16T13:53:18.715Z,22.90
2019-05-16T13:56:41.910Z,24.40
2019-05-16T14:00:07.709Z,26.00
2019-05-16T14:03:32.090Z,25.70
2019-05-16T14:06:58.614Z,24.80
2019-05-16T14:10:20.589Z,23.50
2019-05-16T14:13:43.800Z,23.20
2019-05-16T14:17:13.959Z,24.10
2019-05-16T14:20:32.687Z,26.50
2019-05-16T14:23:56.893Z,27.70
2019-05-16T14:27:20.479Z,27.40
2019-05-16T14:30:46.571Z,26.60
2019-05-16T14:34:09.568Z,25.30
2019-05-16T14:37:33.541Z,24.80
2019-05-16T14:40:57.381Z,24.60
2019-05-16T14:44:21.411Z,23.90
2019-05-16T14:47:47.312Z,23.20
2019-05-16T14:51:10.182Z,22.20
2019-05-16T14:54:33.368Z,21.30
2019-05-16T14:57:56.832Z,20.50
2019-05-16T15:01:20.152Z,19.80
2019-05-16T15:04:43.858Z,19.30
2019-05-16T15:08:08.678Z,19.20
2019-05-16T15:11:32.201Z,19.30
2019-05-16T15:14:58.688Z,19.30
2019-05-16T15:18:20.713Z,19.20
2019-05-16T15:21:44.071Z,19.10
2019-05-16T15:25:08.177Z,19.10
2019-05-16T15:28:33.197Z,19.10
2019-05-16T15:31:57.371Z,19.40
2019-05-16T15:35:22.051Z,19.60
2019-05-16T15:38:47.248Z,19.80
2019-05-16T15:42:10.396Z,19.70
2019-05-16T15:45:43.479Z,19.40
2019-05-16T15:49:09.578Z,18.90
2019-05-16T15:52:31.335Z,18.50
2019-05-16T15:55:54.878Z,18.40
2019-05-16T15:59:18.481Z,18.70
2019-05-16T16:02:41.700Z,19.00
2019-05-16T16:06:06.815Z,19.00
2019-05-16T16:09:30.608Z,19.10
2019-05-16T16:12:56.888Z,19.00
2019-05-16T16:16:20.204Z,18.80
2019-05-16T16:19:43.472Z,18.60
2019-05-16T16:23:07.044Z,18.40
2019-05-16T16:26:31.649Z,18.10
2019-05-16T16:29:54.822Z,18.00
2019-05-16T16:33:25.517Z,17.80
2019-05-16T16:36:43.309Z,17.80
2019-05-16T16:40:11.089Z,17.90
2019-05-16T16:43:32.692Z,17.80
2019-05-16T16:46:57.308Z,17.50
2019-05-16T16:50:20.635Z,17.30
2019-05-16T16:53:43.788Z,17.10
2019-05-16T16:57:07.830Z,17.00
2019-05-16T17:00:31.629Z,17.00
2019-05-16T17:03:57.405Z,16.90
2019-05-16T17:07:20.410Z,16.80
2019-05-16T17:10:43.664Z,16.70
2019-05-16T17:14:07.019Z,16.70
2019-05-16T17:17:30.181Z,16.70
2019-05-16T17:20:53.567Z,16.70
2019-05-16T17:24:17.474Z,16.90
2019-05-16T17:27:40.802Z,17.00
2019-05-16T17:31:06.985Z,16.90
2019-05-16T17:34:29.773Z,16.70
2019-05-16T17:37:53.270Z,16.50
2019-05-16T17:41:16.931Z,16.40
2019-05-16T17:44:40.342Z,16.30
2019-05-16T17:48:04.033Z,16.10
2019-05-16T17:51:27.445Z,16.10
2019-05-16T17:54:53.268Z,16.00
2019-05-16T17:58:16.549Z,15.90
2019-05-16T18:01:43.020Z,15.80
2019-05-16T18:05:07.586Z,15.80
2019-05-16T18:08:50.005Z,15.70
2019-05-16T18:12:13.616Z,15.40
2019-05-16T18:15:37.030Z,15.40
2019-05-16T18:19:00.349Z,15.30
2019-05-16T18:22:23.611Z,15.30
2019-05-16T18:25:47.070Z,15.10
2019-05-16T18:29:10.889Z,15.10
2019-05-16T18:32:34.532Z,15.00
2019-05-16T18:35:58.132Z,14.90
2019-05-16T18:39:21.875Z,14.80
2019-05-16T18:42:47.398Z,14.60
2019-05-16T18:46:10.424Z,14.50
2019-05-16T18:49:36.586Z,14.40
2019-05-16T18:52:59.845Z,14.30
2019-05-16T18:56:23.516Z,14.20
2019-05-16T18:59:50.638Z,14.10
2019-05-16T19:03:16.469Z,13.80
2019-05-16T19:06:41.856Z,13.50
2019-05-16T19:10:07.813Z,13.30
2019-05-16T19:13:31.169Z,13.10
2019-05-16T19:17:02.266Z,12.90
2019-05-16T19:20:28.955Z,12.70
2019-05-16T19:23:52.683Z,12.60
2019-05-16T19:27:17.290Z,12.50
2019-05-16T19:30:40.920Z,12.40
2019-05-16T19:34:06.992Z,12.20
2019-05-16T19:37:30.685Z,12.10
2019-05-16T19:40:57.199Z,12.00
2019-05-16T19:44:23.424Z,11.80
2019-05-16T19:47:47.147Z,11.60
2019-05-16T19:51:11.092Z,11.60
2019-05-16T19:54:36.515Z,11.50
2019-05-16T19:58:00.361Z,11.50
2019-05-16T20:01:23.621Z,11.40
2019-05-16T20:04:49.284Z,11.40
2019-05-16T20:08:12.947Z,11.40
2019-05-16T20:11:37.000Z,11.40
2019-05-16T20:15:07.883Z,11.50
2019-05-16T20:18:27.347Z,11.60
2019-05-16T20:21:52.653Z,11.60
2019-05-16T20:25:16.535Z,11.60
2019-05-16T20:28:40.281Z,11.60
2019-05-16T20:32:03.563Z,11.60
2019-05-16T20:35:27.132Z,11.70
2019-05-16T20:38:51.203Z,11.70
2019-05-16T20:42:16.928Z,11.60
2019-05-16T20:45:39.949Z,11.60
2019-05-16T20:49:03.494Z,11.50
2019-05-16T20:52:26.966Z,11.50
2019-05-16T20:55:50.758Z,11.50
2019-05-16T20:59:14.013Z,11.50
2019-05-16T21:02:37.983Z,11.50
2019-05-16T21:06:01.518Z,11.50
2019-05-16T21:09:26.247Z,11.50
2019-05-16T21:12:49.910Z,11.50
2019-05-16T21:16:13.398Z,11.50
2019-05-16T21:19:39.258Z,11.50
2019-05-16T21:23:03.939Z,11.50
2019-05-16T21:26:28.542Z,11.60
2019-05-16T21:29:51.891Z,11.40
2019-05-16T21:33:18.448Z,11.40
2019-05-16T21:36:41.483Z,11.30
2019-05-16T21:40:07.994Z,11.20
2019-05-16T21:43:34.073Z,11.10
2019-05-16T21:46:57.849Z,10.90
2019-05-16T21:50:21.580Z,10.90
2019-05-16T21:53:46.819Z,10.70
2019-05-16T21:57:10.272Z,10.60
2019-05-16T22:00:41.753Z,10.50
2019-05-16T22:04:07.375Z,10.40
2019-05-16T22:07:33.420Z,10.40
2019-05-16T22:10:57.397Z,10.30
2019-05-16T22:14:29.234Z,10.20
2019-05-16T22:17:52.647Z,10.20
2019-05-16T22:21:16.740Z,10.20
2019-05-16T22:24:40.322Z,10.20
2019-05-16T22:28:03.653Z,10.20
2019-05-16T22:31:27.463Z,10.20
2019-05-16T22:34:50.735Z,10.20
2019-05-16T22:38:16.703Z,10.20
2019-05-16T22:41:39.707Z,10.20
2019-05-16T22:45:03.831Z,10.20
2019-05-16T22:48:28.094Z,10.20
2019-05-16T22:51:51.606Z,10.20
2019-05-16T22:55:17.456Z,10.20
2019-05-16T22:58:40.611Z,10.20
2019-05-16T23:02:11.024Z,10.20
2019-05-16T23:05:31.033Z,10.20
2019-05-16T23:08:56.251Z,10.10
2019-05-16T23:12:19.730Z,10.10
2019-05-16T23:15:43.341Z,10.10
2019-05-16T23:19:06.756Z,10.10
2019-05-16T23:22:30.296Z,10.10
2019-05-16T23:25:53.546Z,10.10
2019-05-16T23:29:17.398Z,10.00
2019-05-16T23:32:40.582Z,10.00
2019-05-16T23:36:03.875Z,10.00
2019-05-16T23:39:27.170Z,10.00
2019-05-16T23:42:50.396Z,10.00
2019-05-16T23:46:13.779Z,10.10
2019-05-16T23:49:41.800Z,10.10
2019-05-16T23:53:07.038Z,10.10
2019-05-16T23:56:29.996Z,10.10
2019-05-16T23:59:53.220Z,10.10
